Time;durP1;ratioP1;P1;durP2;ratioP2;P2;SDS_P1;SDS_P2;PMS_P1;PMS_P2;Temp;Humidity;BMP_temperature;BMP_pressure;BME280_temperature;BME280_humidity;BME280_pressure;Samples;Min_cycle;Max_cycle;Signal;HPM_P1;HPM_P2
2021/10/08 00:01:24;;;;;;;9.90;5.97;;;384.00;2329.60;;;;;;5051019;28;20029;-74
2021/10/08 00:03:51;;;;;;;8.25;5.97;;;384.10;2329.60;;;;;;5054687;28;20096;-74
2021/10/08 00:06:18;;;;;;;12.30;5.88;;;384.10;2329.60;;;;;;5052356;28;20384;-74
2021/10/08 00:08:44;;;;;;;17.27;6.28;;;384.00;2329.60;;;;;;5050895;28;20021;-74
2021/10/08 00:11:10;;;;;;;9.52;6.30;;;384.00;2329.60;;;;;;5052210;28;20033;-74
2021/10/08 00:13:37;;;;;;;11.10;5.30;;;384.00;2329.60;;;;;;5051912;28;20017;-75
2021/10/08 00:16:05;;;;;;;14.23;5.55;;;384.00;2329.60;;;;;;5051671;28;20041;-74
2021/10/08 00:18:34;;;;;;;13.73;5.80;;;384.00;2329.60;;;;;;5052171;28;20013;-74
2021/10/08 00:21:01;;;;;;;11.95;5.78;;;384.00;2329.60;;;;;;5042035;28;20025;-74
2021/10/08 00:23:26;;;;;;;13.13;5.93;;;384.00;2329.60;;;;;;5052247;28;20036;-74
2021/10/08 00:25:52;;;;;;;9.35;5.97;;;384.00;2329.60;;;;;;5051871;28;20017;-74
2021/10/08 00:28:18;;;;;;;19.83;6.18;;;384.00;2329.60;;;;;;5050824;28;20025;-74
2021/10/08 00:30:44;;;;;;;9.43;6.07;;;359.30;2329.60;;;;;;5050064;28;20396;-74
2021/10/08 00:33:10;;;;;;;11.52;5.72;;;359.30;2329.60;;;;;;5039997;28;20037;-73
2021/10/08 00:35:36;;;;;;;9.85;5.47;;;384.00;2329.60;;;;;;5051731;28;20017;-73
2021/10/08 00:38:06;;;;;;;12.48;6.13;;;359.30;2329.60;;;;;;5034016;28;20560;-74
2021/10/08 00:40:37;;;;;;;10.82;5.80;;;359.30;2329.60;;;;;;5051778;28;20024;-74
2021/10/08 00:43:04;;;;;;;20.50;7.30;;;359.30;2329.60;;;;;;5051721;28;20468;-74
2021/10/08 00:45:30;;;;;;;9.75;6.25;;;359.30;2329.60;;;;;;5051169;28;20025;-74
2021/10/08 00:47:58;;;;;;;14.73;6.35;;;359.30;2329.60;;;;;;5049501;28;20036;-74
2021/10/08 00:50:24;;;;;;;10.82;5.55;;;359.30;2329.60;;;;;;5050910;28;20021;-73
2021/10/08 00:52:50;;;;;;;11.70;5.70;;;359.30;2329.60;;;;;;5051397;28;20052;-73
2021/10/08 00:55:16;;;;;;;11.75;5.85;;;359.30;2329.60;;;;;;5040030;28;20028;-73
2021/10/08 00:57:45;;;;;;;11.27;5.90;;;359.30;2329.60;;;;;;5036218;28;20032;-74
2021/10/08 01:00:12;;;;;;;12.80;5.95;;;359.30;2329.60;;;;;;5041891;28;20560;-74
2021/10/08 01:02:38;;;;;;;12.70;5.75;;;359.30;2329.60;;;;;;5055169;28;20112;-75
2021/10/08 01:05:04;;;;;;;12.02;6.50;;;359.30;2329.60;;;;;;5040321;28;20100;-74
2021/10/08 01:07:30;;;;;;;13.40;6.30;;;359.30;2329.60;;;;;;5055509;28;20142;-73
2021/10/08 01:09:56;;;;;;;14.02;6.93;;;359.30;2329.60;;;;;;5052333;28;20479;-73
2021/10/08 01:12:21;;;;;;;13.75;6.53;;;359.30;2329.60;;;;;;5055408;28;20095;-74
2021/10/08 01:14:47;;;;;;;11.35;6.03;;;359.30;2329.60;;;;;;5054941;28;20028;-74
2021/10/08 01:17:18;;;;;;;18.88;6.43;;;359.30;2329.60;;;;;;5036995;28;20480;-73
2021/10/08 01:19:45;;;;;;;12.52;6.40;;;359.30;2329.60;;;;;;5059791;28;20421;-74
2021/10/08 01:22:11;;;;;;;12.50;5.95;;;359.20;2329.60;;;;;;5069928;28;20388;-74
2021/10/08 01:24:37;;;;;;;12.55;6.13;;;359.20;2329.60;;;;;;5040783;28;20357;-74
2021/10/08 01:27:04;;;;;;;12.98;6.05;;;359.30;2329.60;;;;;;5055028;28;20021;-74
2021/10/08 01:29:32;;;;;;;11.80;5.68;;;359.30;2329.60;;;;;;5037212;28;20112;-74
2021/10/08 01:31:58;;;;;;;12.30;6.90;;;359.30;2329.60;;;;;;5053191;28;20037;-74
2021/10/08 01:34:24;;;;;;;21.45;6.85;;;359.30;2329.60;;;;;;5054872;28;20112;-74
2021/10/08 01:36:50;;;;;;;11.45;5.63;;;359.30;2329.60;;;;;;5054877;28;20091;-74
2021/10/08 01:39:15;;;;;;;12.60;6.90;;;359.20;2329.60;;;;;;5054795;28;20104;-73
2021/10/08 01:41:41;;;;;;;10.85;5.60;;;359.20;2329.60;;;;;;5054750;28;20056;-73
2021/10/08 01:44:07;;;;;;;11.30;6.32;;;359.20;2329.60;;;;;;5054561;28;20078;-74
2021/10/08 01:46:33;;;;;;;13.45;6.00;;;359.20;2329.60;;;;;;5054741;28;20036;-74
2021/10/08 01:48:59;;;;;;;13.30;6.80;;;359.10;2329.60;;;;;;5054779;28;20357;-74
2021/10/08 01:51:25;;;;;;;11.25;6.38;;;359.10;2329.60;;;;;;5039360;28;20566;-74
2021/10/08 01:53:50;;;;;;;11.27;5.80;;;359.10;2329.60;;;;;;5052602;28;20056;-74
2021/10/08 01:56:16;;;;;;;11.15;5.13;;;359.10;2329.60;;;;;;5054087;28;20021;-74
2021/10/08 01:58:42;;;;;;;11.57;5.82;;;359.10;2329.60;;;;;;5051789;28;20116;-74
2021/10/08 02:01:08;;;;;;;11.60;5.75;;;359.10;2329.60;;;;;;5053624;28;20092;-74
2021/10/08 02:03:34;;;;;;;9.38;5.93;;;359.10;2329.60;;;;;;5052164;28;20025;-74
2021/10/08 02:06:00;;;;;;;14.18;6.45;;;359.10;2329.60;;;;;;5051975;28;20033;-73
2021/10/08 02:08:26;;;;;;;11.57;5.45;;;359.10;2329.60;;;;;;5053206;28;20514;-74
2021/10/08 02:10:52;;;;;;;11.90;5.47;;;359.10;2329.60;;;;;;5052624;28;20025;-73
2021/10/08 02:13:19;;;;;;;12.77;6.72;;;359.10;2329.60;;;;;;5034737;28;20533;-73
2021/10/08 02:15:48;;;;;;;12.32;5.60;;;359.10;2329.60;;;;;;5034570;28;20063;-73
2021/10/08 02:18:13;;;;;;;15.82;6.70;;;359.10;2329.60;;;;;;5053235;28;21726;-73
2021/10/08 02:20:40;;;;;;;13.38;5.90;;;359.10;2329.60;;;;;;5052870;28;20104;-73
2021/10/08 02:23:08;;;;;;;12.63;5.20;;;358.90;2329.60;;;;;;5053349;28;20096;-73
2021/10/08 02:25:34;;;;;;;9.55;5.05;;;358.90;2329.60;;;;;;5053998;28;20013;-73
2021/10/08 02:28:00;;;;;;;11.13;6.05;;;358.90;2329.60;;;;;;5054131;28;20017;-73
2021/10/08 02:30:25;;;;;;;10.85;5.10;;;358.90;2329.60;;;;;;5047537;28;20496;-73
2021/10/08 02:32:51;;;;;;;11.63;5.50;;;358.80;2329.60;;;;;;5054079;28;20024;-74
2021/10/08 02:35:17;;;;;;;8.35;5.20;;;358.80;2329.60;;;;;;5035829;28;20029;-74
2021/10/08 02:37:43;;;;;;;7.97;5.40;;;358.90;2329.60;;;;;;5035455;28;20114;-73
2021/10/08 02:40:09;;;;;;;8.40;4.60;;;358.90;2329.60;;;;;;5043184;28;20040;-73
2021/10/08 02:42:34;;;;;;;10.38;5.55;;;358.90;2329.60;;;;;;5038450;28;20361;-74
2021/10/08 02:45:00;;;;;;;9.98;5.78;;;358.90;2329.60;;;;;;5052339;28;20032;-74
2021/10/08 02:47:26;;;;;;;7.90;4.95;;;358.90;2329.60;;;;;;5035371;28;20033;-74
2021/10/08 02:49:52;;;;;;;9.82;5.97;;;358.80;2329.60;;;;;;5053294;28;20043;-73
2021/10/08 02:52:17;;;;;;;13.02;5.57;;;358.70;2329.60;;;;;;5045337;28;20033;-73
2021/10/08 02:54:43;;;;;;;10.20;6.20;;;358.70;2329.60;;;;;;5035514;28;20024;-73
2021/10/08 02:57:09;;;;;;;8.45;5.38;;;358.70;2329.60;;;;;;5034821;28;20506;-73
2021/10/08 02:59:34;;;;;;;15.80;6.40;;;358.60;2329.60;;;;;;5053348;28;20017;-73
2021/10/08 03:02:00;;;;;;;12.57;6.15;;;358.50;2329.60;;;;;;5054505;28;20017;-73
2021/10/08 03:04:26;;;;;;;10.15;5.32;;;358.50;2329.60;;;;;;5046295;28;20537;-73
2021/10/08 03:06:52;;;;;;;13.75;5.90;;;358.50;2329.60;;;;;;5061710;28;20025;-73
2021/10/08 03:09:17;;;;;;;10.55;5.22;;;358.40;2329.60;;;;;;5053499;28;20594;-73
2021/10/08 03:11:43;;;;;;;13.23;5.70;;;358.40;2329.60;;;;;;5034957;28;20021;-73
2021/10/08 03:14:09;;;;;;;17.38;6.30;;;333.70;2329.60;;;;;;5053143;28;20025;-73
2021/10/08 03:16:35;;;;;;;9.45;5.90;;;333.60;2329.60;;;;;;5052087;28;20045;-73
2021/10/08 03:19:01;;;;;;;11.50;5.60;;;333.60;2329.60;;;;;;5034990;28;20114;-73
2021/10/08 03:21:27;;;;;;;13.48;6.43;;;333.50;2329.60;;;;;;5035360;28;20039;-73
2021/10/08 03:23:52;;;;;;;9.10;5.75;;;333.50;2329.60;;;;;;5053978;28;20025;-73
2021/10/08 03:26:18;;;;;;;14.05;6.57;;;333.50;2329.60;;;;;;5052760;28;20025;-73
2021/10/08 03:28:45;;;;;;;11.95;6.03;;;333.40;2329.60;;;;;;5055396;28;20029;-73
2021/10/08 03:31:12;;;;;;;13.70;6.13;;;333.40;2329.60;;;;;;5052238;28;20090;-73
2021/10/08 03:33:37;;;;;;;13.57;6.28;;;333.40;2329.60;;;;;;5050277;28;20025;-73
2021/10/08 03:36:04;;;;;;;13.95;6.50;;;333.40;2329.60;;;;;;5051760;28;20371;-72
2021/10/08 03:38:32;;;;;;;10.38;6.60;;;333.30;2329.60;;;;;;5052190;28;20029;-73
2021/10/08 03:41:13;;;;;;;11.13;8.15;;;333.30;2329.60;;;;;;5047570;28;20022;-73
2021/10/08 03:43:41;;;;;;;11.07;5.68;;;333.20;2329.60;;;;;;5050946;28;20028;-74
2021/10/08 03:46:08;;;;;;;19.27;6.40;;;333.20;2329.60;;;;;;5060946;28;20028;-73
2021/10/08 03:48:59;;;;;;;14.93;6.85;;;333.20;2329.60;;;;;;5060036;28;20146;-73
2021/10/08 03:51:22;;;;;;;14.15;6.28;;;333.20;2329.60;;;;;;5062719;28;20032;-73
2021/10/08 03:53:47;;;;;;;12.13;6.10;;;333.20;2329.60;;;;;;5044154;28;20403;-73
2021/10/08 03:56:13;;;;;;;10.27;6.28;;;333.20;2329.60;;;;;;5044920;28;20035;-74
2021/10/08 03:58:39;;;;;;;11.80;6.88;;;333.30;2329.60;;;;;;5060460;28;20036;-74
2021/10/08 04:01:05;;;;;;;12.65;6.38;;;333.30;2329.60;;;;;;5031141;28;20036;-74
2021/10/08 04:03:30;;;;;;;13.25;8.57;;;333.30;2329.60;;;;;;5047749;28;20037;-74
2021/10/08 04:05:56;;;;;;;14.10;6.22;;;333.30;2329.60;;;;;;5052339;28;20017;-75
2021/10/08 04:08:22;;;;;;;10.90;6.40;;;333.30;2329.60;;;;;;5052409;28;20060;-76
2021/10/08 04:10:48;;;;;;;12.40;6.18;;;333.20;2329.60;;;;;;5034212;28;20522;-75
2021/10/08 04:13:13;;;;;;;12.43;6.63;;;333.20;2329.60;;;;;;5052233;28;20422;-75
2021/10/08 04:15:39;;;;;;;10.15;6.78;;;333.20;2329.60;;;;;;5051917;28;20486;-75
2021/10/08 04:18:05;;;;;;;13.00;6.20;;;333.30;2329.60;;;;;;5051092;28;20053;-76
2021/10/08 04:20:31;;;;;;;16.20;7.32;;;333.30;2329.60;;;;;;5051985;28;20142;-76
2021/10/08 04:22:56;;;;;;;13.25;7.85;;;333.30;2329.60;;;;;;5051926;28;20492;-75
2021/10/08 04:25:22;;;;;;;10.05;6.65;;;333.30;2329.60;;;;;;5051860;28;20029;-75
2021/10/08 04:27:48;;;;;;;11.25;6.80;;;333.30;2329.60;;;;;;5027404;28;20544;-74
2021/10/08 04:30:14;;;;;;;11.95;5.88;;;333.20;2329.60;;;;;;5058651;28;20107;-74
2021/10/08 04:32:40;;;;;;;10.65;6.68;;;333.20;2329.60;;;;;;5073153;28;20036;-75
2021/10/08 04:35:05;;;;;;;10.88;7.20;;;333.20;2329.60;;;;;;5062882;28;20033;-74
2021/10/08 04:37:31;;;;;;;11.77;7.20;;;333.20;2329.60;;;;;;5052275;28;20021;-74
2021/10/08 04:39:57;;;;;;;10.70;6.80;;;333.10;2329.60;;;;;;5045715;28;20115;-74
2021/10/08 04:42:23;;;;;;;13.65;6.72;;;333.10;2329.60;;;;;;5059783;28;20079;-74
2021/10/08 04:44:48;;;;;;;10.80;6.55;;;333.10;2329.60;;;;;;5066169;28;20434;-74
2021/10/08 04:47:14;;;;;;;13.02;7.47;;;333.00;2329.60;;;;;;5055904;28;20426;-74
2021/10/08 04:49:40;;;;;;;11.32;6.75;;;333.00;2329.60;;;;;;5073738;28;20447;-73
2021/10/08 04:52:08;;;;;;;9.55;6.70;;;333.00;2329.60;;;;;;5062332;28;20452;-74
2021/10/08 04:54:34;;;;;;;16.13;7.53;;;333.00;2329.60;;;;;;5052268;28;20020;-74
2021/10/08 04:56:59;;;;;;;12.93;6.65;;;333.00;2329.60;;;;;;5053874;28;20028;-74
2021/10/08 04:59:25;;;;;;;11.68;6.13;;;333.00;2329.60;;;;;;5044179;28;20082;-73
2021/10/08 05:01:51;;;;;;;10.63;6.20;;;333.00;2329.60;;;;;;5061495;28;20027;-75
2021/10/08 05:04:16;;;;;;;13.55;6.25;;;332.90;2329.60;;;;;;5059659;28;20468;-74
2021/10/08 05:06:43;;;;;;;11.63;6.30;;;332.90;2329.60;;;;;;5055690;28;20032;-74
2021/10/08 05:09:09;;;;;;;10.77;7.05;;;333.00;2329.60;;;;;;5053797;28;20127;-74
2021/10/08 05:11:34;;;;;;;10.48;6.68;;;333.00;2329.60;;;;;;5053850;28;20754;-75
2021/10/08 05:14:00;;;;;;;15.10;7.65;;;333.10;2329.60;;;;;;5053706;28;20489;-74
2021/10/08 05:16:26;;;;;;;13.00;7.55;;;333.10;2329.60;;;;;;5052805;28;20041;-74
2021/10/08 05:18:52;;;;;;;10.88;6.50;;;333.20;2329.60;;;;;;5060366;28;20028;-74
2021/10/08 05:21:18;;;;;;;12.48;7.88;;;333.20;2329.60;;;;;;5058101;28;20021;-74
2021/10/08 05:23:44;;;;;;;12.68;6.43;;;333.30;2329.60;;;;;;5066072;28;20033;-76
2021/10/08 05:26:09;;;;;;;10.13;6.22;;;333.30;2329.60;;;;;;5035555;28;20055;-73
2021/10/08 05:28:35;;;;;;;9.07;6.40;;;333.30;2329.60;;;;;;5055424;28;20498;-73
2021/10/08 05:31:01;;;;;;;9.73;7.22;;;333.30;2329.60;;;;;;5055230;28;20029;-73
2021/10/08 05:33:27;;;;;;;11.50;5.68;;;333.30;2329.60;;;;;;5053800;28;20083;-73
2021/10/08 05:35:52;;;;;;;13.40;8.05;;;333.30;2329.60;;;;;;5050449;28;20099;-73
2021/10/08 05:38:18;;;;;;;15.88;9.32;;;333.50;2329.60;;;;;;5055217;28;20097;-73
2021/10/08 05:40:47;;;;;;;9.20;6.47;;;333.50;2329.60;;;;;;5057093;28;20533;-73
2021/10/08 05:43:13;;;;;;;10.93;5.00;;;333.50;2329.60;;;;;;5048553;28;20084;-73
2021/10/08 05:45:40;;;;;;;10.65;5.22;;;333.60;2329.60;;;;;;5059484;28;20543;-73
2021/10/08 05:48:05;;;;;;;10.57;5.00;;;358.50;2329.60;;;;;;5045824;28;20464;-73
2021/10/08 05:50:31;;;;;;;10.18;5.43;;;333.60;2329.60;;;;;;5056395;28;20028;-73
2021/10/08 05:52:57;;;;;;;7.25;5.00;;;333.70;2329.60;;;;;;5064545;28;20035;-73
2021/10/08 05:55:23;;;;;;;10.30;4.97;;;333.70;2329.60;;;;;;5060983;28;20611;-73
2021/10/08 05:57:50;;;;;;;12.15;6.15;;;333.70;2329.60;;;;;;5056020;28;20062;-73
2021/10/08 06:00:18;;;;;;;11.80;6.07;;;333.70;2329.60;;;;;;5056416;28;20029;-73
2021/10/08 06:02:44;;;;;;;13.55;6.07;;;358.40;2329.60;;;;;;5035982;28;20033;-73
2021/10/08 06:05:10;;;;;;;12.40;7.35;;;358.40;2329.60;;;;;;5066057;28;20104;-73
2021/10/08 06:07:35;;;;;;;11.00;6.45;;;358.40;2329.60;;;;;;5066307;28;20555;-73
2021/10/08 06:10:02;;;;;;;13.73;6.45;;;333.70;2329.60;;;;;;5035729;28;20025;-73
2021/10/08 06:12:27;;;;;;;9.77;5.50;;;358.40;2329.60;;;;;;5053142;28;20036;-73
2021/10/08 06:14:53;;;;;;;8.02;5.57;;;358.40;2329.60;;;;;;5028111;28;20392;-73
2021/10/08 06:17:19;;;;;;;8.77;4.72;;;358.40;2329.60;;;;;;4997752;28;1609747;-73
2021/10/08 06:19:44;;;;;;;10.38;6.28;;;358.40;2329.60;;;;;;5054288;28;20031;-73
2021/10/08 06:22:10;;;;;;;9.30;6.55;;;358.50;2329.60;;;;;;5036203;28;20032;-73
2021/10/08 06:24:36;;;;;;;9.30;6.38;;;358.50;2329.60;;;;;;5053678;28;20456;-73
2021/10/08 06:27:02;;;;;;;11.65;6.82;;;358.60;2329.60;;;;;;5054089;28;20108;-74
2021/10/08 06:29:27;;;;;;;11.10;7.78;;;358.70;2329.60;;;;;;5053793;28;20028;-73
2021/10/08 06:31:53;;;;;;;11.43;7.18;;;358.80;2329.60;;;;;;5053896;28;20025;-74
2021/10/08 06:34:19;;;;;;;19.27;8.32;;;358.80;2329.60;;;;;;5053349;28;20476;-73
2021/10/08 06:36:44;;;;;;;11.35;6.82;;;358.90;2329.60;;;;;;5036104;28;20037;-73
2021/10/08 06:39:10;;;;;;;13.45;8.30;;;359.00;2329.60;;;;;;5058797;28;20467;-73
2021/10/08 06:41:36;;;;;;;16.25;7.80;;;359.00;2329.60;;;;;;5056317;28;20051;-74
2021/10/08 06:44:02;;;;;;;16.52;7.72;;;359.00;2329.60;;;;;;5039393;28;20099;-74
2021/10/08 06:46:28;;;;;;;9.15;7.25;;;359.10;2329.60;;;;;;5054685;28;20070;-73
2021/10/08 06:48:54;;;;;;;8.63;5.75;;;359.20;2329.60;;;;;;5055867;28;20423;-73
2021/10/08 06:51:21;;;;;;;10.20;6.40;;;359.20;2329.60;;;;;;5055942;28;20037;-73
2021/10/08 06:53:46;;;;;;;13.55;7.35;;;359.30;2329.60;;;;;;5052508;28;20024;-73
2021/10/08 06:56:13;;;;;;;14.82;6.22;;;384.00;2329.60;;;;;;5060871;28;20020;-74
2021/10/08 06:58:38;;;;;;;11.65;5.97;;;384.10;2329.60;;;;;;5056514;28;20017;-74
2021/10/08 07:01:04;;;;;;;11.45;6.25;;;384.20;2329.60;;;;;;5046461;28;20025;-74
2021/10/08 07:03:30;;;;;;;9.30;6.90;;;384.10;2329.60;;;;;;5039833;28;20040;-73
2021/10/08 07:05:56;;;;;;;14.85;6.68;;;384.20;2329.60;;;;;;5051010;28;20025;-73
2021/10/08 07:08:21;;;;;;;16.40;8.10;;;384.30;2329.60;;;;;;5064826;28;20028;-73
2021/10/08 07:10:47;;;;;;;14.50;8.65;;;384.30;2329.60;;;;;;5034967;28;20085;-73
2021/10/08 07:13:13;;;;;;;13.63;6.70;;;384.30;2329.60;;;;;;5063628;28;20518;-73
2021/10/08 07:15:39;;;;;;;23.85;16.45;;;384.40;2329.60;;;;;;5038266;28;20509;-74
2021/10/08 07:18:07;;;;;;;20.58;14.05;;;384.50;2329.60;;;;;;5063704;28;20558;-73
2021/10/08 07:20:32;;;;;;;14.90;8.57;;;384.50;2329.60;;;;;;5061837;28;20163;-73
2021/10/08 07:22:58;;;;;;;20.05;10.82;;;384.70;2329.60;;;;;;5039815;28;20489;-73
2021/10/08 07:25:27;;;;;;;15.02;11.27;;;384.90;2329.60;;;;;;5055252;28;20104;-73
2021/10/08 07:27:53;;;;;;;10.00;6.65;;;409.60;2355.20;;;;;;5049421;28;20088;-73
2021/10/08 07:30:19;;;;;;;10.38;5.95;;;409.60;2355.20;;;;;;5065769;28;20036;-73
2021/10/08 07:32:46;;;;;;;11.10;6.70;;;409.80;2355.20;;;;;;5044768;28;20476;-74
2021/10/08 07:35:12;;;;;;;12.88;7.30;;;409.80;2355.20;;;;;;5053532;28;20033;-73
2021/10/08 07:37:39;;;;;;;12.13;7.82;;;409.80;2355.20;;;;;;5053561;28;20111;-74
2021/10/08 07:40:06;;;;;;;22.20;11.98;;;409.90;2355.20;;;;;;5053923;28;20021;-74
2021/10/08 07:42:34;;;;;;;15.88;10.35;;;410.10;2355.20;;;;;;5053659;28;20483;-73
2021/10/08 07:45:03;;;;;;;13.95;9.57;;;410.30;2355.20;;;;;;5051841;28;20116;-73
2021/10/08 07:47:28;;;;;;;9.82;6.47;;;410.30;2355.20;;;;;;5052755;28;20043;-73
2021/10/08 07:49:54;;;;;;;12.27;7.35;;;410.40;2355.20;;;;;;5053079;28;20100;-73
2021/10/08 07:52:20;;;;;;;10.57;6.78;;;435.20;2355.20;;;;;;5052267;28;20099;-73
2021/10/08 07:54:45;;;;;;;14.40;8.77;;;435.40;2355.20;;;;;;5052218;28;20033;-73
2021/10/08 07:57:11;;;;;;;14.88;7.03;;;435.50;2355.20;;;;;;5051939;28;20052;-74
2021/10/08 07:59:37;;;;;;;18.17;11.45;;;435.50;2355.20;;;;;;5051558;28;20090;-73
2021/10/08 08:02:03;;;;;;;13.48;9.15;;;435.60;2355.20;;;;;;5051986;28;20365;-73
2021/10/08 08:04:29;;;;;;;20.42;13.93;;;435.50;2355.20;;;;;;5051188;28;20021;-73
2021/10/08 08:06:55;;;;;;;12.18;7.22;;;435.50;2355.20;;;;;;5051706;28;21005;-74
2021/10/08 08:09:21;;;;;;;15.55;10.00;;;435.60;2355.20;;;;;;5046492;28;20033;-73
2021/10/08 08:11:47;;;;;;;11.38;6.82;;;435.70;2355.20;;;;;;5051655;28;20020;-73
2021/10/08 08:14:12;;;;;;;21.67;14.00;;;435.80;2355.20;;;;;;5051557;28;20017;-73
2021/10/08 08:16:38;;;;;;;11.50;7.47;;;435.90;2355.20;;;;;;5051871;28;20049;-73
2021/10/08 08:19:04;;;;;;;12.18;6.78;;;435.80;2355.20;;;;;;5051297;28;20064;-73
2021/10/08 08:21:30;;;;;;;12.70;5.80;;;435.90;2355.20;;;;;;5051981;28;20635;-74
2021/10/08 08:23:55;;;;;;;10.10;6.25;;;435.90;2355.20;;;;;;5034536;28;20108;-74
2021/10/08 08:26:21;;;;;;;11.45;7.10;;;435.90;2355.20;;;;;;5051868;28;20027;-73
2021/10/08 08:28:47;;;;;;;7.60;4.95;;;436.10;2355.20;;;;;;5051885;28;20384;-73
2021/10/08 08:31:13;;;;;;;9.30;4.40;;;461.00;2380.80;;;;;;5051520;28;20498;-73
2021/10/08 08:33:39;;;;;;;7.38;4.65;;;461.10;2380.80;;;;;;5051659;28;20025;-74
2021/10/08 08:36:05;;;;;;;7.90;4.20;;;461.30;2380.80;;;;;;5051835;28;20077;-74
2021/10/08 08:38:31;;;;;;;15.68;5.32;;;461.50;2380.80;;;;;;5051826;28;20052;-73
2021/10/08 08:41:01;;;;;;;7.78;4.57;;;461.50;2380.80;;;;;;5050773;28;20032;-74
2021/10/08 08:43:29;;;;;;;5.35;3.65;;;461.70;2380.80;;;;;;5040437;28;20040;-73
2021/10/08 08:45:56;;;;;;;7.03;4.10;;;461.60;2380.80;;;;;;5051136;28;20044;-74
2021/10/08 08:48:22;;;;;;;13.13;7.95;;;461.60;2380.80;;;;;;5051519;28;20106;-73
2021/10/08 08:50:48;;;;;;;11.52;6.57;;;486.40;2380.80;;;;;;5051200;28;20471;-74
2021/10/08 08:53:17;;;;;;;10.48;4.78;;;486.60;2380.80;;;;;;5048079;28;20032;-73
2021/10/08 08:55:43;;;;;;;8.25;3.35;;;486.50;2380.80;;;;;;5034116;28;20067;-73
2021/10/08 08:58:08;;;;;;;12.95;4.95;;;486.90;2380.80;;;;;;5051182;28;20021;-73
2021/10/08 09:00:34;;;;;;;10.60;5.43;;;486.90;2380.80;;;;;;5042663;28;20075;-73
2021/10/08 09:03:01;;;;;;;14.60;9.10;;;486.90;2380.80;;;;;;5035155;28;20041;-73
2021/10/08 09:05:36;;;;;;;11.07;6.10;;;487.00;2380.80;;;;;;5046790;28;20028;-74
2021/10/08 09:08:04;;;;;;;5.20;3.40;;;487.30;2380.80;;;;;;5041899;28;20079;-74
2021/10/08 09:10:32;;;;;;;8.05;3.63;;;487.30;2380.80;;;;;;5029646;28;20043;-73
2021/10/08 09:12:58;;;;;;;6.57;3.35;;;512.00;2380.80;;;;;;5040089;28;20495;-74
2021/10/08 09:15:27;;;;;;;8.02;2.97;;;487.10;2380.80;;;;;;5047171;28;20033;-74
2021/10/08 09:18:08;;;;;;;6.18;3.22;;;487.00;2380.80;;;;;;5054193;28;20053;-73
2021/10/08 09:20:35;;;;;;;10.38;5.22;;;486.90;2380.80;;;;;;5051006;28;20040;-74
2021/10/08 09:23:01;;;;;;;7.68;4.00;;;486.90;2380.80;;;;;;5033364;28;20029;-73
2021/10/08 09:25:34;;;;;;;7.47;4.00;;;486.70;2380.80;;;;;;5053253;28;20021;-74
2021/10/08 09:28:09;;;;;;;8.63;3.72;;;486.40;2380.80;;;;;;5052969;28;20510;-73
2021/10/08 09:30:39;;;;;;;8.10;4.35;;;461.70;2380.80;;;;;;5053353;28;20025;-73
2021/10/08 09:33:19;;;;;;;8.25;3.92;;;486.60;2380.80;;;;;;5054653;28;20549;-73
2021/10/08 09:35:47;;;;;;;8.50;4.78;;;486.60;2380.80;;;;;;5059076;28;20033;-73
2021/10/08 09:38:15;;;;;;;5.00;3.45;;;461.60;2380.80;;;;;;5063424;28;20027;-73
2021/10/08 09:40:51;;;;;;;7.07;3.67;;;461.50;2380.80;;;;;;5046562;28;20017;-73
2021/10/08 09:43:22;;;;;;;;;;;461.50;2380.80;;;;;;5063943;28;20044;-73
2021/10/08 09:45:51;;;;;;;8.35;3.20;;;461.40;2380.80;;;;;;5069784;28;19905;-73
2021/10/08 09:48:30;;;;;;;4.13;2.75;;;461.30;2380.80;;;;;;5061118;28;20115;-73
2021/10/08 09:51:08;;;;;;;5.55;3.88;;;461.20;2380.80;;;;;;5056628;28;20548;-73
2021/10/08 09:53:36;;;;;;;5.97;3.13;;;461.00;2380.80;;;;;;5054162;28;20033;-73
2021/10/08 09:56:23;;;;;;;6.55;4.47;;;461.00;2380.80;;;;;;5034876;28;20021;-73
2021/10/08 09:58:52;;;;;;;;;;;461.00;2380.80;;;;;;5054541;28;20055;-73
2021/10/08 10:01:29;;;;;;;10.93;5.85;;;461.00;2380.80;;;;;;5054142;28;19913;-73
2021/10/08 10:03:55;;;;;;;9.15;3.53;;;460.80;2380.80;;;;;;5053935;28;20384;-73
2021/10/08 10:06:22;;;;;;;8.88;4.63;;;436.10;2355.20;;;;;;5035649;28;20059;-73
2021/10/08 10:08:48;;;;;;;6.38;4.10;;;460.90;2380.80;;;;;;5052934;28;20025;-73
2021/10/08 10:11:22;;;;;;;8.52;5.95;;;460.90;2380.80;;;;;;5054900;28;20384;-73
2021/10/08 10:13:51;;;;;;;7.18;3.53;;;460.80;2380.80;;;;;;5064374;28;20084;-73
2021/10/08 10:16:18;;;;;;;5.82;3.30;;;436.00;2355.20;;;;;;5035386;28;20068;-73
2021/10/08 10:18:47;;;;;;;8.45;3.70;;;435.70;2355.20;;;;;;5034326;28;20141;-73
2021/10/08 10:21:18;;;;;;;11.70;6.35;;;435.70;2355.20;;;;;;5052662;28;20029;-73
2021/10/08 10:23:45;;;;;;;9.75;4.90;;;435.70;2355.20;;;;;;5035953;28;20044;-73
2021/10/08 10:26:11;;;;;;;8.27;3.85;;;435.70;2355.20;;;;;;5057624;28;20099;-73
2021/10/08 10:28:37;;;;;;;14.68;5.28;;;435.60;2355.20;;;;;;5034580;28;20480;-73
2021/10/08 10:31:04;;;;;;;12.48;4.50;;;435.50;2355.20;;;;;;5053516;28;20043;-73
2021/10/08 10:33:31;;;;;;;15.00;4.47;;;435.60;2355.20;;;;;;5035396;28;20021;-73
2021/10/08 10:36:00;;;;;;;7.90;4.47;;;435.50;2355.20;;;;;;5053386;28;20021;-73
2021/10/08 10:38:33;;;;;;;8.20;4.10;;;435.50;2355.20;;;;;;5053339;28;20036;-74
2021/10/08 10:41:08;;;;;;;9.60;4.85;;;435.50;2355.20;;;;;;5051161;28;20357;-73
2021/10/08 10:43:42;;;;;;;8.55;5.72;;;435.50;2355.20;;;;;;5053364;28;20028;-73
2021/10/08 10:52:01;;;;;;;8.75;3.90;;;435.30;2355.20;;;;;;5044062;28;20070;-72
2021/10/08 10:54:41;;;;;;;13.15;5.55;;;410.30;2355.20;;;;;;5035000;28;20023;-72
2021/10/08 10:57:19;;;;;;;11.32;5.80;;;410.30;2355.20;;;;;;5044036;28;20101;-71
2021/10/08 10:59:46;;;;;;;12.30;6.90;;;410.20;2355.20;;;;;;5051868;28;20025;-72
2021/10/08 11:02:12;;;;;;;9.77;5.68;;;410.10;2355.20;;;;;;5055906;28;20029;-72
2021/10/08 11:04:46;;;;;;;10.63;5.18;;;410.20;2355.20;;;;;;5052861;28;20040;-72
2021/10/08 11:07:14;;;;;;;11.70;5.30;;;410.10;2355.20;;;;;;5052899;28;20104;-72
2021/10/08 11:10:06;;;;;;;16.83;8.00;;;410.20;2355.20;;;;;;5035975;28;20025;-73
2021/10/08 11:12:42;;;;;;;10.10;4.97;;;410.20;2355.20;;;;;;5052916;28;20380;-73
2021/10/08 11:15:17;;;;;;;13.55;6.32;;;409.90;2355.20;;;;;;5052650;28;20047;-73
2021/10/08 11:17:54;;;;;;;7.07;4.53;;;409.80;2355.20;;;;;;5029508;28;20049;-73
2021/10/08 11:20:28;;;;;;;7.53;4.72;;;409.70;2355.20;;;;;;5049899;28;20021;-72
2021/10/08 11:22:56;;;;;;;9.93;5.22;;;409.80;2355.20;;;;;;5038651;28;20029;-74
2021/10/08 11:25:21;;;;;;;11.70;5.43;;;409.60;2355.20;;;;;;5047146;28;20025;-72
2021/10/08 11:27:48;;;;;;;13.48;5.47;;;409.60;2355.20;;;;;;5033881;28;20514;-72
2021/10/08 11:30:15;;;;;;;10.05;4.22;;;384.80;2329.60;;;;;;5035960;28;20028;-73
2021/10/08 11:32:53;;;;;;;16.77;5.55;;;384.80;2329.60;;;;;;5033530;28;20024;-73
2021/10/08 11:35:28;;;;;;;11.65;5.13;;;384.80;2329.60;;;;;;5050976;28;20075;-72
2021/10/08 11:37:54;;;;;;;15.07;6.72;;;384.80;2329.60;;;;;;5050530;28;20100;-72
2021/10/08 11:40:27;;;;;;;11.50;6.20;;;384.80;2329.60;;;;;;5052558;28;20803;-73
2021/10/08 11:42:58;;;;;;;13.32;6.25;;;384.70;2329.60;;;;;;5050511;28;20029;-73
2021/10/08 11:45:48;;;;;;;13.27;7.32;;;384.60;2329.60;;;;;;5034457;28;20037;-73
2021/10/08 11:50:45;;;;;;;9.95;5.93;;;384.60;2329.60;;;;;;5056070;28;20410;-73
2021/10/08 11:53:11;;;;;;;11.45;5.93;;;384.70;2329.60;;;;;;5038520;28;20440;-72
2021/10/08 11:55:40;;;;;;;23.17;5.95;;;384.70;2329.60;;;;;;5052476;28;20107;-72
2021/10/08 11:58:11;;;;;;;9.55;6.13;;;384.60;2329.60;;;;;;5032243;28;20033;-73
2021/10/08 12:00:44;;;;;;;11.85;6.97;;;384.70;2329.60;;;;;;5034001;28;20039;-72
2021/10/08 12:03:16;;;;;;;11.98;6.97;;;384.80;2329.60;;;;;;5051177;28;20090;-72
2021/10/08 12:05:49;;;;;;;9.93;6.03;;;384.80;2329.60;;;;;;5048895;28;20021;-72
2021/10/08 12:08:17;;;;;;;11.05;6.72;;;384.80;2329.60;;;;;;5028230;28;20060;-71
2021/10/08 12:11:01;;;;;;;16.63;8.60;;;384.80;2329.60;;;;;;5049254;28;20032;-72
2021/10/08 12:13:37;;;;;;;15.57;8.23;;;384.80;2329.60;;;;;;5051204;28;20028;-71
2021/10/08 12:16:03;;;;;;;18.58;12.00;;;384.70;2329.60;;;;;;5050825;28;20727;-70
2021/10/08 12:18:29;;;;;;;25.90;14.05;;;384.90;2329.60;;;;;;5050615;28;20025;-70
2021/10/08 12:21:12;;;;;;;18.27;11.88;;;384.80;2329.60;;;;;;5043498;28;20987;-70